Time;durP1;ratioP1;P1;durP2;ratioP2;P2;SDS_P1;SDS_P2;PMS_P1;PMS_P2;Temp;Humidity;BMP_temperature;BMP_pressure;BME280_temperature;BME280_humidity;BME280_pressure;Samples;Min_cycle;Max_cycle;Signal;HPM_P1;HPM_P2
2021/11/25 00:00:07;;;;;;;30.15;14.43;;;;;;;;;;4972175;28;20101;-61
2021/11/25 00:02:33;;;;;;;29.45;13.77;;;;;;;;;;4971442;28;20392;-61
2021/11/25 00:04:58;;;;;;;24.30;13.02;;;;;;;;;;4983516;28;20356;-61
2021/11/25 00:07:23;;;;;;;28.23;12.27;;;;;;;;;;4972108;28;20532;-61
2021/11/25 00:09:50;;;;;;;28.30;12.85;;;;;;;;;;4971761;28;20432;-61
2021/11/25 00:12:16;;;;;;;27.08;13.85;;;;;;;;;;4971550;28;20360;-61
2021/11/25 00:14:41;;;;;;;24.90;12.40;;;;;;;;;;4973235;28;20383;-61
2021/11/25 00:17:06;;;;;;;27.63;13.25;;;;;;;;;;4972047;28;20425;-61
2021/11/25 00:19:32;;;;;;;24.13;12.32;;;;;;;;;;4972147;28;20329;-63
2021/11/25 00:21:57;;;;;;;31.13;14.13;;;;;;;;;;4971643;28;20478;-61
2021/11/25 00:24:22;;;;;;;26.33;12.60;;;;;;;;;;4972573;28;20343;-60
2021/11/25 00:26:48;;;;;;;24.10;13.38;;;;;;;;;;4971988;28;20494;-61
2021/11/25 00:29:13;;;;;;;25.75;13.68;;;;;;;;;;4971488;28;20352;-61
2021/11/25 00:31:38;;;;;;;25.70;13.48;;;;;;;;;;4971320;28;20096;-62
2021/11/25 00:34:04;;;;;;;28.52;13.38;;;;;;;;;;4971697;28;20060;-61
2021/11/25 00:36:29;;;;;;;27.38;13.77;;;;;;;;;;4971534;28;20538;-60
2021/11/25 00:38:55;;;;;;;30.80;14.15;;;;;;;;;;4971337;28;20096;-60
2021/11/25 00:41:20;;;;;;;26.00;13.82;;;;;;;;;;4970090;28;20399;-60
2021/11/25 00:43:46;;;;;;;29.27;13.60;;;;;;;;;;4971393;28;20452;-61
2021/11/25 00:46:11;;;;;;;35.67;15.40;;;;;;;;;;4971123;28;20393;-60
2021/11/25 00:48:37;;;;;;;28.27;14.10;;;;;;;;;;4971336;28;20392;-60
2021/11/25 00:51:02;;;;;;;28.15;13.52;;;;;;;;;;4971183;28;20479;-61
2021/11/25 00:53:28;;;;;;;32.08;14.90;;;;;;;;;;4971257;28;20421;-61
2021/11/25 00:55:53;;;;;;;28.67;14.43;;;;;;;;;;4971070;28;20037;-61
2021/11/25 00:58:20;;;;;;;29.52;14.70;;;;;;;;;;4970747;28;20520;-61
2021/11/25 01:00:46;;;;;;;30.90;14.30;;;;;;;;;;4971126;28;20399;-61
2021/11/25 01:03:12;;;;;;;28.60;13.52;;;;;;;;;;4971069;28;20301;-60
2021/11/25 01:05:37;;;;;;;28.55;14.27;;;;;;;;;;4971193;28;20033;-61
2021/11/25 01:08:03;;;;;;;26.35;12.65;;;;;;;;;;4970777;28;20026;-61
2021/11/25 01:10:29;;;;;;;25.38;14.00;;;;;;;;;;4970662;28;20449;-60
2021/11/25 01:12:56;;;;;;;29.58;14.57;;;;;;;;;;4970513;28;20029;-61
2021/11/25 01:15:31;;;;;;;29.27;14.15;;;;;;;;;;4970461;28;20440;-61
2021/11/25 01:18:18;;;;;;;30.30;14.88;;;;;;;;;;4970865;28;20518;-61
2021/11/25 01:20:45;;;;;;;28.17;13.85;;;;;;;;;;4970323;28;20452;-61
2021/11/25 01:23:13;;;;;;;30.50;14.15;;;;;;;;;;4970098;28;20329;-60
2021/11/25 01:25:40;;;;;;;29.58;14.68;;;;;;;;;;4970503;28;20365;-61
2021/11/25 01:28:12;;;;;;;30.30;16.00;;;;;;;;;;4970453;28;20433;-61
2021/11/25 01:30:45;;;;;;;31.90;15.40;;;;;;;;;;4971600;28;20297;-60
2021/11/25 01:33:10;;;;;;;28.52;13.98;;;;;;;;;;4970107;28;20436;-61
2021/11/25 01:35:37;;;;;;;31.17;13.20;;;;;;;;;;4970518;28;20506;-61
2021/11/25 01:38:03;;;;;;;28.02;13.73;;;;;;;;;;4970187;28;20428;-61
2021/11/25 01:40:30;;;;;;;25.80;14.07;;;;;;;;;;4968277;28;20519;-61
2021/11/25 01:42:55;;;;;;;32.47;14.98;;;;;;;;;;4970322;28;20467;-61
2021/11/25 01:45:24;;;;;;;25.52;12.88;;;;;;;;;;4969521;28;20404;-61
2021/11/25 01:47:50;;;;;;;25.77;13.90;;;;;;;;;;4970087;28;20500;-63
2021/11/25 01:50:16;;;;;;;29.35;14.02;;;;;;;;;;4970023;28;20482;-61
2021/11/25 01:52:42;;;;;;;27.13;14.02;;;;;;;;;;4969599;28;20044;-60
2021/11/25 01:55:08;;;;;;;26.70;12.98;;;;;;;;;;4969787;28;20447;-61
2021/11/25 01:57:34;;;;;;;25.25;12.95;;;;;;;;;;4970261;28;20336;-61
2021/11/25 01:59:59;;;;;;;27.30;14.43;;;;;;;;;;4970010;28;20355;-61
2021/11/25 02:02:24;;;;;;;27.17;13.15;;;;;;;;;;4969714;28;20087;-61
2021/11/25 02:04:50;;;;;;;25.83;13.18;;;;;;;;;;4969790;28;20479;-61
2021/11/25 02:07:17;;;;;;;26.85;13.13;;;;;;;;;;4969774;28;20419;-61
2021/11/25 02:09:43;;;;;;;26.67;12.30;;;;;;;;;;4969684;28;20436;-61
2021/11/25 02:12:08;;;;;;;26.75;13.27;;;;;;;;;;4969549;28;20463;-60
2021/11/25 02:14:34;;;;;;;27.30;14.27;;;;;;;;;;4969286;28;20337;-65
2021/11/25 02:16:59;;;;;;;26.23;12.25;;;;;;;;;;4969915;28;20433;-62
2021/11/25 02:19:26;;;;;;;30.98;13.68;;;;;;;;;;4969382;28;20333;-61
2021/11/25 02:21:51;;;;;;;23.60;12.35;;;;;;;;;;4969667;28;20091;-62
2021/11/25 02:24:17;;;;;;;26.13;14.35;;;;;;;;;;4969920;28;20512;-60
2021/11/25 02:26:42;;;;;;;27.40;13.52;;;;;;;;;;4969485;28;20448;-61
2021/11/25 02:29:07;;;;;;;24.65;12.75;;;;;;;;;;4970763;28;20451;-61
2021/11/25 02:31:33;;;;;;;25.88;13.15;;;;;;;;;;4970196;28;20029;-61
2021/11/25 02:33:58;;;;;;;24.30;12.35;;;;;;;;;;4969588;28;20420;-61
2021/11/25 02:36:24;;;;;;;28.30;13.43;;;;;;;;;;4969523;28;20341;-60
2021/11/25 02:38:50;;;;;;;23.33;12.10;;;;;;;;;;4969505;28;20479;-61
2021/11/25 02:41:16;;;;;;;24.42;12.43;;;;;;;;;;4970880;28;20452;-61
2021/11/25 02:43:41;;;;;;;24.63;12.60;;;;;;;;;;4969662;28;20361;-61
2021/11/25 02:46:13;;;;;;;29.45;12.60;;;;;;;;;;4969697;28;20364;-61
2021/11/25 02:48:43;;;;;;;20.90;11.65;;;;;;;;;;4969860;28;20504;-61
2021/11/25 02:51:11;;;;;;;30.65;12.52;;;;;;;;;;4968975;28;20452;-60
2021/11/25 02:53:36;;;;;;;23.67;11.57;;;;;;;;;;4969254;28;20415;-61
2021/11/25 02:56:07;;;;;;;21.50;11.05;;;;;;;;;;4969821;28;20087;-61
2021/11/25 02:58:33;;;;;;;22.63;11.93;;;;;;;;;;4969687;28;20302;-61
2021/11/25 03:01:05;;;;;;;19.50;11.25;;;;;;;;;;4969144;28;20026;-61
2021/11/25 03:03:30;;;;;;;20.48;12.48;;;;;;;;;;4970752;28;20103;-61
2021/11/25 03:05:56;;;;;;;17.85;10.73;;;;;;;;;;4972729;28;20416;-61
2021/11/25 03:08:22;;;;;;;21.40;10.63;;;;;;;;;;4972866;28;20404;-61
2021/11/25 03:11:08;;;;;;;23.90;11.70;;;;;;;;;;4972812;28;20084;-61
2021/11/25 03:13:36;;;;;;;25.33;11.75;;;;;;;;;;4972739;28;20022;-61
2021/11/25 03:16:02;;;;;;;22.80;12.95;;;;;;;;;;4972845;28;20347;-61
2021/11/25 03:18:29;;;;;;;22.10;10.25;;;;;;;;;;4974280;28;20314;-61
2021/11/25 03:20:56;;;;;;;19.95;10.82;;;;;;;;;;4972722;28;20459;-61
2021/11/25 03:23:27;;;;;;;20.45;9.45;;;;;;;;;;4972877;28;20029;-62
2021/11/25 03:25:54;;;;;;;21.27;11.38;;;;;;;;;;4972886;28;20454;-61
2021/11/25 03:28:20;;;;;;;19.05;9.68;;;;;;;;;;4972912;28;20339;-61
2021/11/25 03:30:53;;;;;;;18.73;9.80;;;;;;;;;;4972678;28;20348;-60
2021/11/25 03:33:19;;;;;;;20.20;10.10;;;;;;;;;;4972618;28;20322;-61
2021/11/25 03:35:44;;;;;;;18.13;9.65;;;;;;;;;;4974353;28;20029;-62
2021/11/25 03:38:10;;;;;;;18.45;9.90;;;;;;;;;;4972163;28;20413;-61
2021/11/25 03:40:35;;;;;;;18.17;9.73;;;;;;;;;;4972469;28;20395;-61
2021/11/25 03:43:00;;;;;;;18.38;9.82;;;;;;;;;;4972377;28;20526;-61
2021/11/25 03:45:26;;;;;;;19.42;9.00;;;;;;;;;;4972277;28;20461;-61
2021/11/25 03:47:51;;;;;;;16.27;8.70;;;;;;;;;;4972609;28;20451;-62
2021/11/25 03:50:17;;;;;;;24.58;9.43;;;;;;;;;;4972295;28;20112;-61
2021/11/25 03:52:42;;;;;;;19.38;9.15;;;;;;;;;;4972230;28;20320;-61
2021/11/25 03:55:10;;;;;;;17.77;8.82;;;;;;;;;;4972451;28;20436;-61
2021/11/25 03:57:36;;;;;;;16.35;8.65;;;;;;;;;;4972028;28;20638;-61
2021/11/25 04:00:06;;;;;;;18.10;9.57;;;;;;;;;;4972018;28;20459;-60
2021/11/25 04:02:31;;;;;;;20.20;9.82;;;;;;;;;;4971843;28;20368;-61
2021/11/25 04:04:56;;;;;;;17.85;8.70;;;;;;;;;;4972636;28;20092;-61
2021/11/25 04:07:22;;;;;;;16.58;7.93;;;;;;;;;;4971850;28;20428;-61
2021/11/25 04:09:47;;;;;;;14.73;8.55;;;;;;;;;;4971894;28;20454;-61
2021/11/25 04:12:12;;;;;;;13.75;7.75;;;;;;;;;;4971381;28;20417;-61
2021/11/25 04:14:38;;;;;;;13.93;8.05;;;;;;;;;;4971401;28;20188;-61
2021/11/25 04:17:03;;;;;;;13.15;7.28;;;;;;;;;;4971935;28;20431;-61
2021/11/25 04:19:29;;;;;;;14.05;7.35;;;;;;;;;;4971589;28;20391;-61
2021/11/25 04:21:54;;;;;;;17.02;7.75;;;;;;;;;;4971786;28;20367;-61
2021/11/25 04:24:20;;;;;;;13.35;7.50;;;;;;;;;;4971896;28;20314;-62
2021/11/25 04:26:46;;;;;;;14.50;7.93;;;;;;;;;;4972121;28;20479;-62
2021/11/25 04:29:11;;;;;;;16.35;8.02;;;;;;;;;;4971180;28;20441;-61
2021/11/25 04:37:06;;;;;;;17.35;8.13;;;;;;;;;;4971396;28;20372;-61
2021/11/25 04:39:31;;;;;;;13.95;7.45;;;;;;;;;;4971052;28;20348;-61
2021/11/25 04:41:57;;;;;;;14.75;7.05;;;;;;;;;;4971283;28;20030;-61
2021/11/25 04:44:22;;;;;;;12.20;7.03;;;;;;;;;;4972571;28;20108;-61
2021/11/25 04:46:48;;;;;;;13.40;7.50;;;;;;;;;;4970707;28;20388;-61
2021/11/25 04:49:13;;;;;;;13.32;7.20;;;;;;;;;;4972317;28;20037;-61
2021/11/25 04:51:39;;;;;;;15.00;6.90;;;;;;;;;;4971316;28;20561;-61
2021/11/25 04:54:05;;;;;;;14.15;7.50;;;;;;;;;;4970679;28;20444;-61
2021/11/25 04:56:30;;;;;;;17.80;7.93;;;;;;;;;;4971010;28;20423;-61
2021/11/25 04:58:56;;;;;;;14.15;6.75;;;;;;;;;;4971100;28;20563;-61
2021/11/25 05:01:21;;;;;;;13.70;6.40;;;;;;;;;;4971015;28;20491;-61
2021/11/25 05:03:47;;;;;;;14.43;7.05;;;;;;;;;;4970945;28;20425;-61
2021/11/25 05:06:12;;;;;;;12.73;7.20;;;;;;;;;;4971171;28;20057;-64
2021/11/25 05:08:37;;;;;;;16.02;7.25;;;;;;;;;;4971047;28;20097;-61
2021/11/25 05:11:03;;;;;;;14.18;7.03;;;;;;;;;;4970640;28;20446;-61
2021/11/25 05:13:29;;;;;;;16.20;6.85;;;;;;;;;;4970887;28;20033;-63
2021/11/25 05:15:54;;;;;;;13.38;6.93;;;;;;;;;;4972391;28;20458;-61
2021/11/25 05:18:19;;;;;;;13.98;8.00;;;;;;;;;;4970680;28;20338;-61
2021/11/25 05:20:45;;;;;;;14.45;6.45;;;;;;;;;;4970300;28;20513;-61
2021/11/25 05:23:11;;;;;;;11.02;6.43;;;;;;;;;;4970535;28;20120;-61
2021/11/25 05:25:37;;;;;;;11.85;6.65;;;;;;;;;;4969881;28;20425;-61
2021/11/25 05:28:02;;;;;;;15.18;7.18;;;;;;;;;;4970268;28;20424;-61
2021/11/25 05:30:31;;;;;;;11.50;6.68;;;;;;;;;;4970061;28;20432;-62
2021/11/25 05:32:57;;;;;;;12.60;7.13;;;;;;;;;;4970951;28;20440;-61
2021/11/25 05:35:23;;;;;;;11.27;5.57;;;;;;;;;;4970683;28;20332;-61
2021/11/25 05:37:48;;;;;;;13.43;6.50;;;;;;;;;;4970523;28;20341;-64
2021/11/25 05:40:14;;;;;;;10.02;5.75;;;;;;;;;;4970729;28;20332;-62
2021/11/25 05:42:40;;;;;;;15.23;6.55;;;;;;;;;;4970267;28;20440;-61
2021/11/25 05:45:06;;;;;;;12.55;6.68;;;;;;;;;;4984929;28;20453;-62
2021/11/25 05:47:34;;;;;;;15.35;6.30;;;;;;;;;;4971433;28;20029;-61
2021/11/25 05:50:04;;;;;;;15.85;7.13;;;;;;;;;;4970425;28;20431;-62
2021/11/25 05:52:30;;;;;;;15.82;6.85;;;;;;;;;;4969956;28;20614;-62
2021/11/25 05:54:55;;;;;;;13.40;5.85;;;;;;;;;;4970334;28;20486;-61
2021/11/25 05:57:20;;;;;;;12.32;6.35;;;;;;;;;;4969634;28;20454;-62
2021/11/25 05:59:46;;;;;;;11.50;6.60;;;;;;;;;;4970049;28;20029;-61
2021/11/25 06:02:11;;;;;;;17.10;6.93;;;;;;;;;;4969534;28;20324;-61
2021/11/25 06:04:37;;;;;;;12.40;6.68;;;;;;;;;;4969576;28;20349;-61
2021/11/25 06:07:02;;;;;;;11.45;5.93;;;;;;;;;;4970455;28;20314;-62
2021/11/25 06:09:28;;;;;;;11.50;6.68;;;;;;;;;;4970087;28;20403;-61
2021/11/25 06:11:54;;;;;;;11.38;6.28;;;;;;;;;;4969734;28;20463;-61
2021/11/25 06:14:20;;;;;;;11.30;5.55;;;;;;;;;;4969688;28;20329;-61
2021/11/25 06:16:45;;;;;;;10.80;6.20;;;;;;;;;;4969503;28;20107;-62
2021/11/25 06:19:10;;;;;;;13.75;6.47;;;;;;;;;;4969348;28;20462;-61
2021/11/25 06:21:36;;;;;;;12.43;7.03;;;;;;;;;;4969322;28;20057;-61
2021/11/25 06:24:02;;;;;;;15.27;6.78;;;;;;;;;;4970221;28;20363;-62
2021/11/25 06:26:27;;;;;;;16.40;7.57;;;;;;;;;;4969939;28;20103;-61
2021/11/25 06:28:55;;;;;;;16.35;8.00;;;;;;;;;;4969595;28;20461;-61
2021/11/25 06:31:22;;;;;;;18.27;8.57;;;;;;;;;;4969257;28;20041;-62
2021/11/25 06:33:47;;;;;;;16.95;8.32;;;;;;;;;;4969363;28;20416;-62
2021/11/25 06:36:12;;;;;;;15.55;7.40;;;;;;;;;;4969409;28;20379;-62
2021/11/25 06:38:38;;;;;;;18.77;9.00;;;;;;;;;;4971975;28;20444;-62
2021/11/25 06:41:07;;;;;;;14.93;8.00;;;;;;;;;;4973707;28;20503;-61
2021/11/25 06:43:32;;;;;;;23.85;9.77;;;;;;;;;;4973414;28;20459;-62
2021/11/25 06:45:58;;;;;;;18.10;7.93;;;;;;;;;;4973183;28;20488;-61
2021/11/25 06:48:23;;;;;;;19.88;9.25;;;;;;;;;;4973146;28;20420;-62
2021/11/25 06:50:48;;;;;;;17.92;9.90;;;;;;;;;;4973520;28;20083;-62
2021/11/25 06:53:14;;;;;;;23.40;10.60;;;;;;;;;;4973019;28;20490;-61
2021/11/25 06:55:39;;;;;;;18.02;9.00;;;;;;;;;;4973278;28;20101;-62
2021/11/25 06:58:04;;;;;;;23.33;10.90;;;;;;;;;;4973142;28;20429;-62
2021/11/25 07:00:30;;;;;;;19.77;10.02;;;;;;;;;;4973691;28;20065;-62
2021/11/25 07:02:56;;;;;;;18.50;9.55;;;;;;;;;;4973245;28;20391;-62
2021/11/25 07:05:22;;;;;;;21.85;10.43;;;;;;;;;;4973317;28;20034;-62
2021/11/25 07:07:48;;;;;;;20.92;11.23;;;;;;;;;;4973046;28;20371;-62
2021/11/25 07:10:14;;;;;;;25.60;11.30;;;;;;;;;;4972938;28;20359;-62
2021/11/25 07:12:40;;;;;;;20.67;10.70;;;;;;;;;;4972855;28;20329;-62
2021/11/25 07:15:08;;;;;;;25.92;12.32;;;;;;;;;;4972990;28;20452;-61
2021/11/25 07:17:33;;;;;;;28.20;11.48;;;;;;;;;;4973001;28;20459;-62
2021/11/25 07:19:59;;;;;;;27.83;12.63;;;;;;;;;;4971103;28;20333;-62
2021/11/25 07:22:26;;;;;;;28.75;12.00;;;;;;;;;;4972766;28;20347;-62
2021/11/25 07:24:51;;;;;;;24.85;11.18;;;;;;;;;;4973300;28;20380;-62
2021/11/25 07:27:17;;;;;;;26.63;12.65;;;;;;;;;;4972424;28;20030;-61
2021/11/25 07:29:42;;;;;;;29.35;12.70;;;;;;;;;;4972789;28;20041;-61
2021/11/25 07:32:07;;;;;;;25.05;13.48;;;;;;;;;;4973375;28;20541;-61
2021/11/25 07:34:33;;;;;;;28.35;13.48;;;;;;;;;;4972443;28;20450;-61
2021/11/25 07:36:59;;;;;;;28.13;13.43;;;;;;;;;;4972840;28;20025;-61
2021/11/25 07:39:24;;;;;;;30.20;14.73;;;;;;;;;;4972445;28;20095;-62
2021/11/25 07:41:50;;;;;;;27.77;13.02;;;;;;;;;;4973617;28;20481;-61
2021/11/25 07:44:15;;;;;;;26.25;13.60;;;;;;;;;;4972080;28;20425;-61
2021/11/25 07:46:40;;;;;;;28.77;12.57;;;;;;;;;;4971618;28;20433;-61
2021/11/25 07:49:06;;;;;;;29.58;14.05;;;;;;;;;;4972011;28;20112;-61
2021/11/25 07:51:32;;;;;;;25.80;13.15;;;;;;;;;;4972170;28;20459;-64
2021/11/25 07:53:58;;;;;;;29.77;15.15;;;;;;;;;;4971707;28;20456;-61
2021/11/25 07:56:24;;;;;;;26.65;14.52;;;;;;;;;;4972077;28;20514;-61
2021/11/25 07:58:50;;;;;;;33.40;15.18;;;;;;;;;;4971753;28;20467;-62
2021/11/25 08:01:15;;;;;;;27.58;14.48;;;;;;;;;;4972221;28;20360;-61
2021/11/25 08:03:40;;;;;;;28.40;15.18;;;;;;;;;;4971806;28;20426;-61
2021/11/25 08:06:06;;;;;;;30.50;14.00;;;;;;;;;;4971926;28;20021;-62
2021/11/25 08:08:31;;;;;;;30.98;15.45;;;;;;;;;;4971786;28;20507;-62
2021/11/25 08:11:01;;;;;;;29.60;15.32;;;;;;;;;;4972512;28;20052;-61
2021/11/25 08:13:28;;;;;;;29.88;14.82;;;;;;;;;;4971893;28;20348;-62
2021/11/25 08:15:54;;;;;;;33.72;15.88;;;;;;;;;;4971799;28;20471;-61
2021/11/25 08:18:19;;;;;;;30.95;16.50;;;;;;;;;;4972214;28;20447;-61
2021/11/25 08:20:44;;;;;;;31.10;16.65;;;;;;;;;;4971447;28;20436;-61
2021/11/25 08:23:10;;;;;;;27.75;15.70;;;;;;;;;;4971421;28;20409;-62
2021/11/25 08:25:35;;;;;;;29.63;15.57;;;;;;;;;;4971946;28;20444;-61
2021/11/25 08:28:01;;;;;;;29.98;15.85;;;;;;;;;;4972133;28;20447;-61
2021/11/25 08:30:27;;;;;;;32.72;15.52;;;;;;;;;;4971119;28;20356;-61
2021/11/25 08:32:53;;;;;;;33.38;17.13;;;;;;;;;;4972464;28;20031;-61
2021/11/25 08:35:19;;;;;;;31.52;15.52;;;;;;;;;;4971562;28;20045;-60
2021/11/25 08:37:45;;;;;;;32.72;15.93;;;;;;;;;;4971537;28;20052;-61
2021/11/25 08:40:12;;;;;;;26.88;14.63;;;;;;;;;;4971524;28;20024;-61
2021/11/25 08:42:38;;;;;;;34.30;16.70;;;;;;;;;;4972215;28;20396;-62
2021/11/25 08:45:05;;;;;;;32.33;15.52;;;;;;;;;;4971246;28;20100;-61
2021/11/25 08:47:30;;;;;;;32.75;16.05;;;;;;;;;;4971174;28;20432;-61
2021/11/25 08:49:56;;;;;;;33.53;17.05;;;;;;;;;;4971474;28;20450;-61
2021/11/25 08:52:21;;;;;;;30.45;16.00;;;;;;;;;;4970830;28;20510;-61
2021/11/25 08:54:47;;;;;;;28.48;15.07;;;;;;;;;;4971099;28;20030;-63
2021/11/25 08:57:12;;;;;;;30.85;14.80;;;;;;;;;;4971664;28;20319;-61
2021/11/25 08:59:37;;;;;;;30.48;15.43;;;;;;;;;;4971109;28;20426;-61
2021/11/25 09:02:03;;;;;;;29.98;13.45;;;;;;;;;;4970098;28;20351;-61
2021/11/25 09:04:30;;;;;;;27.63;14.75;;;;;;;;;;4970846;28;20336;-60
2021/11/25 09:06:55;;;;;;;28.92;14.10;;;;;;;;;;4971017;28;20053;-61
2021/11/25 09:09:21;;;;;;;28.23;14.35;;;;;;;;;;4970735;28;20507;-61
2021/11/25 09:11:46;;;;;;;29.08;14.75;;;;;;;;;;4952826;28;20440;-61
2021/11/25 09:14:12;;;;;;;27.85;14.02;;;;;;;;;;4971375;28;20404;-61
2021/11/25 09:16:38;;;;;;;32.15;13.90;;;;;;;;;;4972466;28;20601;-61
2021/11/25 09:19:03;;;;;;;27.83;14.15;;;;;;;;;;4970043;28;20033;-61
2021/11/25 09:21:30;;;;;;;28.95;13.07;;;;;;;;;;4971657;28;20482;-62
2021/11/25 09:23:57;;;;;;;26.02;13.80;;;;;;;;;;4970462;28;20364;-61
2021/11/25 09:26:22;;;;;;;30.38;14.00;;;;;;;;;;4970412;28;20348;-61
2021/11/25 09:28:48;;;;;;;30.02;13.88;;;;;;;;;;4970359;28;20348;-61
2021/11/25 09:31:15;;;;;;;31.52;14.75;;;;;;;;;;4970350;28;20421;-62
2021/11/25 09:33:42;;;;;;;36.75;15.40;;;;;;;;;;4970231;28;20395;-61
2021/11/25 09:36:07;;;;;;;26.77;12.48;;;;;;;;;;4970264;28;20487;-61
2021/11/25 09:38:33;;;;;;;27.95;13.55;;;;;;;;;;4970266;28;20448;-61
2021/11/25 09:41:00;;;;;;;27.48;14.13;;;;;;;;;;4971116;28;20367;-61
2021/11/25 09:43:26;;;;;;;28.73;14.25;;;;;;;;;;4952746;28;20052;-61
2021/11/25 09:45:53;;;;;;;27.17;13.20;;;;;;;;;;4969882;28;20448;-61
2021/11/25 09:48:20;;;;;;;27.25;13.30;;;;;;;;;;4952992;28;20433;-60
2021/11/25 09:50:49;;;;;;;27.55;14.02;;;;;;;;;;4969966;28;20049;-62
2021/11/25 09:53:22;;;;;;;27.17;13.73;;;;;;;;;;4969784;28;20148;-61
2021/11/25 09:55:49;;;;;;;23.75;12.48;;;;;;;;;;4969324;28;20444;-61
2021/11/25 09:58:17;;;;;;;24.33;12.65;;;;;;;;;;4969827;28;20344;-60
2021/11/25 10:00:46;;;;;;;25.20;12.75;;;;;;;;;;4969806;28;20432;-60
2021/11/25 10:03:15;;;;;;;24.95;12.80;;;;;;;;;;4969142;28;20336;-61
2021/11/25 10:05:43;;;;;;;26.63;13.65;;;;;;;;;;4969385;28;20383;-60
2021/11/25 10:08:27;;;;;;;21.35;12.65;;;;;;;;;;4951454;28;20321;-61
2021/11/25 10:11:18;;;;;;;26.52;13.45;;;;;;;;;;4969444;28;20484;-60
2021/11/25 10:13:46;;;;;;;26.73;12.32;;;;;;;;;;4969442;28;20045;-62
2021/11/25 10:16:17;;;;;;;25.55;13.27;;;;;;;;;;4969248;28;20348;-61
2021/11/25 10:18:44;;;;;;;23.92;13.57;;;;;;;;;;4970667;28;20301;-61
2021/11/25 10:21:15;;;;;;;25.45;12.98;;;;;;;;;;4969447;28;20380;-61
2021/11/25 10:23:42;;;;;;;25.20;13.32;;;;;;;;;;4969522;28;20344;-60
2021/11/25 10:26:11;;;;;;;24.20;13.07;;;;;;;;;;4951757;28;20092;-61
2021/11/25 10:28:50;;;;;;;20.00;11.30;;;;;;;;;;4968943;28;20356;-61
2021/11/25 10:31:18;;;;;;;;;;;;;;;;;;4952215;28;20364;-61
2021/11/25 10:34:00;;;;;;;25.88;11.48;;;;;;;;;;4969201;28;20359;-61
2021/11/25 10:36:53;;;;;;;26.58;12.70;;;;;;;;;;4969125;28;20401;-62
2021/11/25 10:41:56;;;;;;;23.80;12.27;;;;;;;;;;4969362;28;20417;-61
2021/11/25 10:44:29;;;;;;;24.17;11.63;;;;;;;;;;4969282;28;20456;-61
2021/11/25 10:46:55;;;;;;;23.80;12.20;;;;;;;;;;4968663;28;20326;-61
2021/11/25 10:49:52;;;;;;;23.65;11.90;;;;;;;;;;4968681;28;20472;-61
2021/11/25 10:52:28;;;;;;;18.30;11.38;;;;;;;;;;4969329;28;20368;-61
2021/11/25 10:55:00;;;;;;;19.85;12.13;;;;;;;;;;4968775;28;20359;-60
2021/11/25 10:57:39;;;;;;;25.63;13.13;;;;;;;;;;4970326;28;20333;-61
2021/11/25 11:00:10;;;;;;;22.92;11.48;;;;;;;;;;4969164;28;20413;-62
2021/11/25 11:02:36;;;;;;;25.60;13.02;;;;;;;;;;4969847;28;20467;-61
2021/11/25 11:05:05;;;;;;;22.65;10.88;;;;;;;;;;4969000;28;20356;-61
2021/11/25 11:07:36;;;;;;;19.30;10.57;;;;;;;;;;4968650;28;20343;-61
2021/11/25 11:10:24;;;;;;;21.63;10.50;;;;;;;;;;4968783;28;20409;-60
2021/11/25 11:13:02;;;;;;;21.40;10.82;;;;;;;;;;4968647;28;20049;-61
2021/11/25 11:15:45;;;;;;;18.63;10.05;;;;;;;;;;4968528;28;20575;-61
2021/11/25 11:20:44;;;;;;;21.52;10.68;;;;;;;;;;4969665;28;20329;-61
2021/11/25 11:23:09;;;;;;;27.45;10.20;;;;;;;;;;4969117;28;20387;-61
2021/11/25 11:25:36;;;;;;;19.30;10.55;;;;;;;;;;4971031;28;20026;-62
2021/11/25 11:28:05;;;;;;;20.75;10.90;;;;;;;;;;4972937;28;20329;-61
2021/11/25 11:30:34;;;;;;;21.90;11.03;;;;;;;;;;4973693;28;20352;-61
2021/11/25 11:33:06;;;;;;;22.25;10.43;;;;;;;;;;4972111;28;20421;-60
2021/11/25 11:35:33;;;;;;;22.80;10.45;;;;;;;;;;4971967;28;20372;-61
2021/11/25 11:38:02;;;;;;;23.88;10.50;;;;;;;;;;4972200;28;20459;-61
2021/11/25 11:40:29;;;;;;;21.60;10.80;;;;;;;;;;4971834;28;20494;-61
2021/11/25 11:42:58;;;;;;;20.67;9.90;;;;;;;;;;4972208;28;20491;-60
2021/11/25 11:45:25;;;;;;;21.17;9.95;;;;;;;;;;4972507;28;20064;-61
2021/11/25 11:47:54;;;;;;;19.92;9.90;;;;;;;;;;4909421;28;20456;-61
2021/11/25 11:50:50;;;;;;;17.52;8.93;;;;;;;;;;4980019;28;20459;-61
2021/11/25 11:53:20;;;;;;;16.95;10.05;;;;;;;;;;4971866;28;20417;-61
2021/11/25 11:55:56;;;;;;;20.35;10.68;;;;;;;;;;4971824;28;20424;-61
2021/11/25 11:58:30;;;;;;;19.88;10.40;;;;;;;;;;4972123;28;20483;-60
2021/11/25 12:01:16;;;;;;;18.50;9.73;;;;;;;;;;4972720;28;20029;-61
2021/11/25 12:03:44;;;;;;;18.83;10.05;;;;;;;;;;4965772;28;20131;-61
2021/11/25 12:06:09;;;;;;;20.33;10.82;;;;;;;;;;4972218;28;20420;-61
2021/11/25 12:08:35;;;;;;;17.67;8.93;;;;;;;;;;4971016;28;20124;-61
2021/11/25 12:11:07;;;;;;;19.90;10.18;;;;;;;;;;4972352;28;20516;-60
2021/11/25 12:13:41;;;;;;;22.40;10.13;;;;;;;;;;4971155;28;20424;-62
2021/11/25 12:16:21;;;;;;;18.65;9.18;;;;;;;;;;4971937;28;20034;-61
2021/11/25 12:18:52;;;;;;;17.85;10.68;;;;;;;;;;4971440;28;20029;-61
2021/11/25 12:21:31;;;;;;;19.60;8.82;;;;;;;;;;4972113;28;20383;-61
2021/11/25 12:24:28;;;;;;;24.67;9.48;;;;;;;;;;4971217;28;20463;-62
2021/11/25 12:27:16;;;;;;;23.00;9.32;;;;;;;;;;4971428;28;20436;-61
2021/11/25 12:29:49;;;;;;;18.85;9.23;;;;;;;;;;4972220;28;20425;-61
2021/11/25 12:35:13;;;;;;;22.83;9.68;;;;;;;;;;4971065;28;20449;-61
2021/11/25 12:37:41;;;;;;;17.42;8.32;;;;;;;;;;4971884;28;20061;-61
2021/11/25 12:40:27;;;;;;;21.23;10.52;;;;;;;;;;4971497;28;20340;-61
2021/11/25 12:42:59;;;;;;;16.55;9.85;;;;;;;;;;4963759;28;20458;-61
2021/11/25 12:45:32;;;;;;;19.75;9.45;;;;;;;;;;4971593;28;20372;-60
2021/11/25 12:48:20;;;;;;;19.10;8.85;;;;;;;;;;4971318;28;20463;-62
2021/11/25 12:50:56;;;;;;;19.02;8.85;;;;;;;;;;4970493;28;20384;-61
2021/11/25 12:53:39;;;;;;;16.60;8.95;;;;;;;;;;4971209;28;20402;-60
2021/11/25 12:56:14;;;;;;;19.63;9.50;;;;;;;;;;4970678;28;20425;-61
2021/11/25 12:58:47;;;;;;;13.65;7.85;;;;;;;;;;4971784;28;20033;-65
2021/11/25 13:01:21;;;;;;;20.67;10.05;;;;;;;;;;4970523;28;20387;-61
2021/11/25 13:04:03;;;;;;;17.77;9.40;;;;;;;;;;4970617;28;20368;-62
2021/11/25 13:06:29;;;;;;;21.13;8.65;;;;;;;;;;4970632;28;20088;-60
2021/11/25 13:08:55;;;;;;;17.55;8.90;;;;;;;;;;4970319;28;20464;-60
2021/11/25 13:11:25;;;;;;;19.63;9.18;;;;;;;;;;4970927;28;20447;-61
2021/11/25 13:13:53;;;;;;;15.65;7.97;;;;;;;;;;4970523;28;20514;-61
2021/11/25 13:16:19;;;;;;;14.73;7.43;;;;;;;;;;4969065;28;20340;-61
2021/11/25 13:18:51;;;;;;;17.25;9.45;;;;;;;;;;4970663;28;20360;-61
2021/11/25 13:21:20;;;;;;;17.55;9.02;;;;;;;;;;4971353;28;20332;-61
2021/11/25 13:23:56;;;;;;;16.60;7.93;;;;;;;;;;4970357;28;20483;-62
2021/11/25 13:26:22;;;;;;;19.80;7.78;;;;;;;;;;4970221;28;20512;-61
2021/11/25 13:28:50;;;;;;;17.30;8.25;;;;;;;;;;4984583;28;20340;-61
2021/11/25 13:31:23;;;;;;;17.42;8.65;;;;;;;;;;4969488;28;20352;-61
2021/11/25 13:34:02;;;;;;;12.75;7.32;;;;;;;;;;4970385;28;20301;-62
2021/11/25 13:36:38;;;;;;;15.75;8.40;;;;;;;;;;4969581;28;20129;-61
2021/11/25 13:39:05;;;;;;;17.63;7.97;;;;;;;;;;4970695;28;20379;-61
2021/11/25 13:41:30;;;;;;;14.00;8.30;;;;;;;;;;4969728;28;20041;-61
2021/11/25 13:43:59;;;;;;;11.80;6.88;;;;;;;;;;4970411;28;20075;-61
2021/11/25 13:46:39;;;;;;;15.45;7.88;;;;;;;;;;4969388;28;20147;-61
2021/11/25 13:49:07;;;;;;;15.23;7.32;;;;;;;;;;4970722;28;20310;-61
2021/11/25 13:51:32;;;;;;;13.43;7.80;;;;;;;;;;4969685;28;20359;-62
2021/11/25 13:54:07;;;;;;;16.77;7.32;;;;;;;;;;4969513;28;20371;-60
2021/11/25 13:56:33;;;;;;;14.63;7.45;;;;;;;;;;4971165;28;20456;-61
2021/11/25 13:58:59;;;;;;;17.38;7.45;;;;;;;;;;4969547;28;20029;-62
2021/11/25 14:01:24;;;;;;;16.00;6.97;;;;;;;;;;4984846;28;20587;-61
2021/11/25 14:03:50;;;;;;;14.23;7.20;;;;;;;;;;4984021;28;20480;-61
2021/11/25 14:06:31;;;;;;;13.45;7.00;;;;;;;;;;4952039;28;20063;-61
2021/11/25 14:09:07;;;;;;;19.40;7.82;;;;;;;;;;4969048;28;20472;-60
2021/11/25 14:11:33;;;;;;;14.95;7.45;;;;;;;;;;4971438;28;20033;-61
2021/11/25 14:14:04;;;;;;;14.73;7.20;;;;;;;;;;4969938;28;20351;-61
2021/11/25 14:16:29;;;;;;;15.02;7.43;;;;;;;;;;4969432;28;20309;-61
2021/11/25 14:18:54;;;;;;;14.48;6.85;;;;;;;;;;4970312;28;20094;-61
2021/11/25 14:21:40;;;;;;;13.48;6.65;;;;;;;;;;4969576;28;20064;-61
2021/11/25 14:24:10;;;;;;;14.15;6.38;;;;;;;;;;4969349;28;20356;-61
2021/11/25 14:32:15;;;;;;;14.00;6.68;;;;;;;;;;4969752;28;20494;-61
2021/11/25 14:34:43;;;;;;;13.90;7.28;;;;;;;;;;4969115;28;20026;-60
2021/11/25 14:37:17;;;;;;;12.90;6.20;;;;;;;;;;4969044;28;20401;-61
2021/11/25 14:39:43;;;;;;;12.88;6.75;;;;;;;;;;4968925;28;20483;-61
2021/11/25 14:42:10;;;;;;;13.40;7.15;;;;;;;;;;4968904;28;20562;-62
2021/11/25 14:44:36;;;;;;;13.73;6.47;;;;;;;;;;4968816;28;20424;-61
2021/11/25 14:47:12;;;;;;;14.40;6.80;;;;;;;;;;4968821;28;20495;-60